Perseus Leader — 3FBO9 — position and weather

sailwx.info

Track history (hours):
 
Tides and Currents Weather Stations Pressure Air Temp Water Temp Dewpoint Dewpoint Depression Visibility Wind Speed Wind Dir Waves Ship Positions

Perseus Leader

Last reported at 2017-Dec-13 16:47 UTC. Time now 2017-Dec-18 22:41 UTC.
Position N 07°21' W 015°08'.

Length 200 m; draft 9.4 m.

Type: Cargo ship. MMSI: 357170000.

Date/timePositionNaut miles runAvg speedWind from/ knotsBaromVisibWave heightAir tempDewpointWater temp
2017-Dec-13 16:47N 07°21' W 015°08'3017.2
2017-Dec-13 15:02N 07°46' W 015°26'017.5
2017-Dec-13 15:01N 07°46' W 015°26'13517.4
2017-Dec-13 07:15N 09°33' W 016°49'417.2
2017-Dec-13 07:00N 09°36' W 016°51'917.2
2017-Dec-13 06:31N 09°43' W 016°57'1117.1
2017-Dec-13 05:53N 09°52' W 017°03'1317.0
2017-Dec-13 05:09N 10°02' W 017°11'  
2017-Dec-10 15:31N 26°48' W 014°19'917.6
2017-Dec-10 15:01N 26°55' W 014°14'917.6
2017-Dec-10 14:30N 27°03' W 014°08'917.3
2017-Dec-10 14:00N 27°10' W 014°03'1017.4
2017-Dec-10 13:27N 27°18' W 013°57'817.2
2017-Dec-10 12:59N 27°25' W 013°53'917.2
2017-Dec-10 12:29N 27°32' W 013°47'817.3
2017-Dec-10 12:00N 27°39' W 013°42'917.3
2017-Dec-10 11:30N 27°46' W 013°37'917.5
2017-Dec-10 11:00N 27°54' W 013°32'917.3
2017-Dec-10 10:30N 28°01' W 013°27'917.4
2017-Dec-10 10:00N 28°08' W 013°21'917.5
2017-Dec-10 09:30N 28°16' W 013°16'917.8
2017-Dec-10 09:00N 28°23' W 013°11'917.7
2017-Dec-10 08:30N 28°31' W 013°05'917.7
2017-Dec-10 08:00N 28°38' W 012°60'917.8
2017-Dec-10 07:30N 28°46' W 012°54'917.5
2017-Dec-10 06:59N 28°54' W 012°49'816.8
2017-Dec-10 06:29N 29°01' W 012°44'917.3
2017-Dec-10 05:56N 29°10' W 012°43'817.4
2017-Dec-10 05:31N 29°18' W 012°42'917.4
2017-Dec-10 05:01N 29°27' W 012°41'917.4
2017-Dec-10 04:31N 29°35' W 012°41'917.3
2017-Dec-10 04:01N 29°44' W 012°40'917.3
2017-Dec-10 03:30N 29°53' W 012°39'1017.6
2017-Dec-10 02:56N 30°02' W 012°38'47317.4
2017-Dec-08 23:44N 37°54' W 011°46'717.4
2017-Dec-08 23:21N 38°00' W 011°45'1417.2
2017-Dec-08 22:33N 38°14' W 011°44'317.3
2017-Dec-08 22:21N 38°18' W 011°43'617.1
2017-Dec-08 22:01N 38°23' W 011°43'2017.4
2017-Dec-08 20:52N 38°43' W 011°38'617.5
2017-Dec-08 20:30N 38°49' W 011°35'65815.6
2017-Dec-07 02:20N 48°56' W 005°43'3513.2
2017-Dec-06 23:40N 49°13' W 004°57'212.7
2017-Dec-06 23:30N 49°14' W 004°54'712.8
2017-Dec-06 22:59N 49°19' W 004°46'24 9.9
2017-Dec-06 20:37N 49°30' W 004°15'  
2017-Dec-04 10:30N 51°19' E 003°14'0 0.0
2017-Dec-04 10:00N 51°19' E 003°14'0 0.0
2017-Dec-04 09:30N 51°19' E 003°14'0 0.0
2017-Dec-04 09:00N 51°19' E 003°14'0 0.0
2017-Dec-04 08:30N 51°19' E 003°14'0 0.0
2017-Dec-04 08:00N 51°19' E 003°14'0 0.0
2017-Dec-04 07:30N 51°19' E 003°14'0 0.0
2017-Dec-04 07:00N 51°19' E 003°14'0 0.0
2017-Dec-04 06:30N 51°19' E 003°14'0 0.0
2017-Dec-04 06:00N 51°19' E 003°14'0 0.0
2017-Dec-04 05:30N 51°19' E 003°14'0 0.0
2017-Dec-04 05:00N 51°19' E 003°14'0 0.0
2017-Dec-04 04:30N 51°19' E 003°14'0 0.0
2017-Dec-04 04:00N 51°19' E 003°14'0 0.0
2017-Dec-04 03:30N 51°19' E 003°14'0 0.0
2017-Dec-04 03:00N 51°19' E 003°14'0 0.0
2017-Dec-04 02:30N 51°19' E 003°14'0 0.0
2017-Dec-04 02:00N 51°19' E 003°14'0 0.0
2017-Dec-04 01:30N 51°19' E 003°14'0 0.0
2017-Dec-04 01:00N 51°19' E 003°14'0 0.0
2017-Dec-04 00:30N 51°19' E 003°14'0 0.0
2017-Dec-04 00:00N 51°19' E 003°14'0 0.0
2017-Dec-03 23:30N 51°19' E 003°14'0 0.0
2017-Dec-03 23:00N 51°19' E 003°14'0 0.3
2017-Dec-03 22:30N 51°19' E 003°13'1 2.0
2017-Dec-03 22:00N 51°20' E 003°13'0 0.0
2017-Dec-03 21:31N 51°20' E 003°13'1 1.2
2017-Dec-03 21:01N 51°21' E 003°13'2 4.2
2017-Dec-03 20:31N 51°22' E 003°11'611.9
2017-Dec-03 20:01N 51°25' E 003°02'612.1
2017-Dec-03 19:31N 51°25' E 002°52'510.3
2017-Dec-03 19:01N 51°24' E 002°44'3 5.2
2017-Dec-03 18:28N 51°25' E 002°40'2 3.9
2017-Dec-03 17:58N 51°26' E 002°38'0 0.1
2017-Dec-03 17:27N 51°26' E 002°38'0 0.0
2017-Dec-03 16:57N 51°26' E 002°38'  
Track history (hours):
 
Tides and Currents Weather Stations Pressure Air Temp Water Temp Dewpoint Dewpoint Depression Visibility Wind Speed Wind Dir Waves Ship Positions

Perseus Leader

Last reported at 2017-Dec-13 16:47 UTC. Time now 2017-Dec-18 22:41 UTC.
Position N 07°21' W 015°08'.

Length 200 m; draft 9.4 m.

Type: Cargo ship. MMSI: 357170000.

Date/timePositionNaut miles runAvg speedWind from/ knotsBaromVisibWave heightAir tempDewpointWater temp
2017-Dec-13 16:47N 07°21' W 015°08'3017.2
2017-Dec-13 15:02N 07°46' W 015°26'017.5
2017-Dec-13 15:01N 07°46' W 015°26'13517.4
2017-Dec-13 07:15N 09°33' W 016°49'417.2
2017-Dec-13 07:00N 09°36' W 016°51'917.2
2017-Dec-13 06:31N 09°43' W 016°57'1117.1
2017-Dec-13 05:53N 09°52' W 017°03'1317.0
2017-Dec-13 05:09N 10°02' W 017°11'  
2017-Dec-10 15:31N 26°48' W 014°19'917.6
2017-Dec-10 15:01N 26°55' W 014°14'917.6
2017-Dec-10 14:30N 27°03' W 014°08'917.3
2017-Dec-10 14:00N 27°10' W 014°03'1017.4
2017-Dec-10 13:27N 27°18' W 013°57'817.2
2017-Dec-10 12:59N 27°25' W 013°53'917.2
2017-Dec-10 12:29N 27°32' W 013°47'817.3
2017-Dec-10 12:00N 27°39' W 013°42'917.3
2017-Dec-10 11:30N 27°46' W 013°37'917.5
2017-Dec-10 11:00N 27°54' W 013°32'917.3
2017-Dec-10 10:30N 28°01' W 013°27'917.4
2017-Dec-10 10:00N 28°08' W 013°21'917.5
2017-Dec-10 09:30N 28°16' W 013°16'917.8
2017-Dec-10 09:00N 28°23' W 013°11'917.7
2017-Dec-10 08:30N 28°31' W 013°05'917.7
2017-Dec-10 08:00N 28°38' W 012°60'917.8
2017-Dec-10 07:30N 28°46' W 012°54'917.5
2017-Dec-10 06:59N 28°54' W 012°49'816.8
2017-Dec-10 06:29N 29°01' W 012°44'917.3
2017-Dec-10 05:56N 29°10' W 012°43'817.4
2017-Dec-10 05:31N 29°18' W 012°42'917.4
2017-Dec-10 05:01N 29°27' W 012°41'917.4
2017-Dec-10 04:31N 29°35' W 012°41'917.3
2017-Dec-10 04:01N 29°44' W 012°40'917.3
2017-Dec-10 03:30N 29°53' W 012°39'1017.6
2017-Dec-10 02:56N 30°02' W 012°38'47317.4
2017-Dec-08 23:44N 37°54' W 011°46'717.4
2017-Dec-08 23:21N 38°00' W 011°45'1417.2
2017-Dec-08 22:33N 38°14' W 011°44'317.3
2017-Dec-08 22:21N 38°18' W 011°43'617.1
2017-Dec-08 22:01N 38°23' W 011°43'2017.4
2017-Dec-08 20:52N 38°43' W 011°38'617.5
2017-Dec-08 20:30N 38°49' W 011°35'65815.6
2017-Dec-07 02:20N 48°56' W 005°43'3513.2
2017-Dec-06 23:40N 49°13' W 004°57'212.7
2017-Dec-06 23:30N 49°14' W 004°54'712.8
2017-Dec-06 22:59N 49°19' W 004°46'24 9.9
2017-Dec-06 20:37N 49°30' W 004°15'  
2017-Dec-04 10:30N 51°19' E 003°14'0 0.0
2017-Dec-04 10:00N 51°19' E 003°14'0 0.0
2017-Dec-04 09:30N 51°19' E 003°14'0 0.0
2017-Dec-04 09:00N 51°19' E 003°14'0 0.0
2017-Dec-04 08:30N 51°19' E 003°14'0 0.0
2017-Dec-04 08:00N 51°19' E 003°14'0 0.0
2017-Dec-04 07:30N 51°19' E 003°14'0 0.0
2017-Dec-04 07:00N 51°19' E 003°14'0 0.0
2017-Dec-04 06:30N 51°19' E 003°14'0 0.0
2017-Dec-04 06:00N 51°19' E 003°14'0 0.0
2017-Dec-04 05:30N 51°19' E 003°14'0 0.0
2017-Dec-04 05:00N 51°19' E 003°14'0 0.0
2017-Dec-04 04:30N 51°19' E 003°14'0 0.0
2017-Dec-04 04:00N 51°19' E 003°14'0 0.0
2017-Dec-04 03:30N 51°19' E 003°14'0 0.0
2017-Dec-04 03:00N 51°19' E 003°14'0 0.0
2017-Dec-04 02:30N 51°19' E 003°14'0 0.0
2017-Dec-04 02:00N 51°19' E 003°14'0 0.0
2017-Dec-04 01:30N 51°19' E 003°14'0 0.0
2017-Dec-04 01:00N 51°19' E 003°14'0 0.0
2017-Dec-04 00:30N 51°19' E 003°14'0 0.0
2017-Dec-04 00:00N 51°19' E 003°14'0 0.0
2017-Dec-03 23:30N 51°19' E 003°14'0 0.0
2017-Dec-03 23:00N 51°19' E 003°14'0 0.3
2017-Dec-03 22:30N 51°19' E 003°13'1 2.0
2017-Dec-03 22:00N 51°20' E 003°13'0 0.0
2017-Dec-03 21:31N 51°20' E 003°13'1 1.2
2017-Dec-03 21:01N 51°21' E 003°13'2 4.2
2017-Dec-03 20:31N 51°22' E 003°11'611.9
2017-Dec-03 20:01N 51°25' E 003°02'612.1
2017-Dec-03 19:31N 51°25' E 002°52'510.3
2017-Dec-03 19:01N 51°24' E 002°44'3 5.2
2017-Dec-03 18:28N 51°25' E 002°40'2 3.9
2017-Dec-03 17:58N 51°26' E 002°38'0 0.1
2017-Dec-03 17:27N 51°26' E 002°38'0 0.0
2017-Dec-03 16:57N 51°26' E 002°38'  

Dump ship's entire track history